sensor_id;sensor_type;location;lat;lon;timestamp;pressure;altitude;pressure_sealevel;temperature;humidity
20696;BME280;10507;52.754;13.040;2022-09-12T00:00:05;101486.34;;;11.96;100.00
20696;BME280;10507;52.754;13.040;2022-09-12T00:02:38;101490.16;;;11.91;100.00
20696;BME280;10507;52.754;13.040;2022-09-12T00:05:11;101485.22;;;11.80;100.00
20696;BME280;10507;52.754;13.040;2022-09-12T00:07:39;101508.31;;;11.82;100.00
20696;BME280;10507;52.754;13.040;2022-09-12T00:10:07;101498.03;;;11.72;100.00
20696;BME280;10507;52.754;13.040;2022-09-12T00:12:34;101517.63;;;11.72;100.00
20696;BME280;10507;52.754;13.040;2022-09-12T00:15:05;101523.94;;;11.71;100.00
20696;BME280;10507;52.754;13.040;2022-09-12T00:17:33;101535.44;;;11.73;100.00
20696;BME280;10507;52.754;13.040;2022-09-12T00:20:01;101532.09;;;11.68;100.00
20696;BME280;10507;52.754;13.040;2022-09-12T00:22:29;101537.31;;;11.71;100.00
20696;BME280;10507;52.754;13.040;2022-09-12T00:24:57;101565.59;;;11.77;100.00
20696;BME280;10507;52.754;13.040;2022-09-12T00:27:24;101576.28;;;11.77;100.00
20696;BME280;10507;52.754;13.040;2022-09-12T00:29:52;101594.69;;;11.86;100.00
20696;BME280;10507;52.754;13.040;2022-09-12T00:32:22;101598.22;;;11.86;100.00
20696;BME280;10507;52.754;13.040;2022-09-12T00:34:49;101604.44;;;11.89;100.00
20696;BME280;10507;52.754;13.040;2022-09-12T00:37:17;101621.91;;;11.97;100.00
20696;BME280;10507;52.754;13.040;2022-09-12T00:39:44;101649.13;;;12.09;100.00
20696;BME280;10507;52.754;13.040;2022-09-12T00:42:12;101670.16;;;12.18;100.00
20696;BME280;10507;52.754;13.040;2022-09-12T00:44:46;101672.66;;;12.22;100.00
20696;BME280;10507;52.754;13.040;2022-09-12T00:47:27;101670.72;;;12.26;100.00
20696;BME280;10507;52.754;13.040;2022-09-12T00:49:59;101684.66;;;12.34;100.00
20696;BME280;10507;52.754;13.040;2022-09-12T00:52:33;101665.91;;;12.34;100.00
20696;BME280;10507;52.754;13.040;2022-09-12T00:55:04;101658.66;;;12.38;100.00
20696;BME280;10507;52.754;13.040;2022-09-12T00:57:37;101639.75;;;12.41;100.00
20696;BME280;10507;52.754;13.040;2022-09-12T01:00:09;101624.56;;;12.41;100.00
20696;BME280;10507;52.754;13.040;2022-09-12T01:02:44;101601.31;;;12.42;100.00
20696;BME280;10507;52.754;13.040;2022-09-12T01:05:13;101580.69;;;12.44;100.00
20696;BME280;10507;52.754;13.040;2022-09-12T01:07:41;101562.91;;;12.43;100.00
20696;BME280;10507;52.754;13.040;2022-09-12T01:10:13;101531.78;;;12.40;100.00
20696;BME280;10507;52.754;13.040;2022-09-12T01:12:42;101505.25;;;12.34;100.00
20696;BME280;10507;52.754;13.040;2022-09-12T01:15:10;101502.41;;;12.37;100.00
20696;BME280;10507;52.754;13.040;2022-09-12T01:17:51;101489.19;;;12.34;100.00
20696;BME280;10507;52.754;13.040;2022-09-12T01:20:37;101483.97;;;12.31;100.00
20696;BME280;10507;52.754;13.040;2022-09-12T01:23:27;101488.56;;;12.27;100.00
20696;BME280;10507;52.754;13.040;2022-09-12T01:26:23;101465.69;;;12.20;100.00
20696;BME280;10507;52.754;13.040;2022-09-12T01:29:13;101444.75;;;12.10;100.00
20696;BME280;10507;52.754;13.040;2022-09-12T01:31:49;101445.00;;;12.03;100.00
20696;BME280;10507;52.754;13.040;2022-09-12T01:34:25;101444.59;;;11.92;100.00
20696;BME280;10507;52.754;13.040;2022-09-12T01:36:58;101444.09;;;11.82;100.00
20696;BME280;10507;52.754;13.040;2022-09-12T01:39:36;101455.19;;;11.73;100.00
20696;BME280;10507;52.754;13.040;2022-09-12T01:42:10;101460.16;;;11.60;100.00
20696;BME280;10507;52.754;13.040;2022-09-12T01:44:49;101477.44;;;11.52;100.00
20696;BME280;10507;52.754;13.040;2022-09-12T01:47:26;101485.84;;;11.42;100.00
20696;BME280;10507;52.754;13.040;2022-09-12T01:50:00;101482.78;;;11.30;100.00
20696;BME280;10507;52.754;13.040;2022-09-12T01:52:33;101515.75;;;11.30;100.00
20696;BME280;10507;52.754;13.040;2022-09-12T01:55:09;101566.38;;;11.35;100.00
20696;BME280;10507;52.754;13.040;2022-09-12T01:57:40;101597.56;;;11.34;100.00
20696;BME280;10507;52.754;13.040;2022-09-12T02:00:11;101608.25;;;11.34;100.00
20696;BME280;10507;52.754;13.040;2022-09-12T02:02:44;101625.28;;;11.32;100.00
20696;BME280;10507;52.754;13.040;2022-09-12T02:05:19;101629.91;;;11.28;100.00
20696;BME280;10507;52.754;13.040;2022-09-12T02:07:50;101632.75;;;11.23;100.00
20696;BME280;10507;52.754;13.040;2022-09-12T02:10:22;101685.91;;;11.31;100.00
20696;BME280;10507;52.754;13.040;2022-09-12T02:13:00;101717.72;;;11.39;100.00
20696;BME280;10507;52.754;13.040;2022-09-12T02:15:33;101767.25;;;11.51;100.00
20696;BME280;10507;52.754;13.040;2022-09-12T02:18:05;101796.41;;;11.57;100.00
20696;BME280;10507;52.754;13.040;2022-09-12T02:20:36;101797.41;;;11.54;100.00
20696;BME280;10507;52.754;13.040;2022-09-12T02:23:22;101792.28;;;11.48;100.00
20696;BME280;10507;52.754;13.040;2022-09-12T02:25:54;101803.94;;;11.45;100.00
20696;BME280;10507;52.754;13.040;2022-09-12T02:28:26;101802.34;;;11.41;100.00
20696;BME280;10507;52.754;13.040;2022-09-12T02:31:02;101794.56;;;11.34;100.00
20696;BME280;10507;52.754;13.040;2022-09-12T02:33:39;101794.75;;;11.28;100.00
20696;BME280;10507;52.754;13.040;2022-09-12T02:36:14;101782.53;;;11.20;100.00
20696;BME280;10507;52.754;13.040;2022-09-12T02:38:49;101783.56;;;11.16;100.00
20696;BME280;10507;52.754;13.040;2022-09-12T02:41:19;101785.53;;;11.11;100.00
20696;BME280;10507;52.754;13.040;2022-09-12T02:43:48;101785.69;;;11.07;100.00
20696;BME280;10507;52.754;13.040;2022-09-12T02:46:20;101803.50;;;11.08;100.00
20696;BME280;10507;52.754;13.040;2022-09-12T02:48:50;101794.72;;;11.02;100.00
20696;BME280;10507;52.754;13.040;2022-09-12T02:51:17;101807.25;;;11.00;100.00
20696;BME280;10507;52.754;13.040;2022-09-12T02:53:49;101821.56;;;10.99;100.00
20696;BME280;10507;52.754;13.040;2022-09-12T02:56:22;101853.53;;;11.02;100.00
20696;BME280;10507;52.754;13.040;2022-09-12T02:58:53;101855.38;;;11.00;100.00
20696;BME280;10507;52.754;13.040;2022-09-12T03:01:29;101843.97;;;10.95;100.00
20696;BME280;10507;52.754;13.040;2022-09-12T03:04:16;101857.31;;;10.95;100.00
20696;BME280;10507;52.754;13.040;2022-09-12T03:06:56;101842.41;;;10.88;100.00
20696;BME280;10507;52.754;13.040;2022-09-12T03:09:33;101864.56;;;10.92;100.00
20696;BME280;10507;52.754;13.040;2022-09-12T03:12:09;101861.88;;;10.92;100.00
20696;BME280;10507;52.754;13.040;2022-09-12T03:14:53;101856.75;;;10.86;100.00
20696;BME280;10507;52.754;13.040;2022-09-12T03:17:35;101843.53;;;10.81;100.00
20696;BME280;10507;52.754;13.040;2022-09-12T03:20:09;101817.03;;;10.75;100.00
20696;BME280;10507;52.754;13.040;2022-09-12T03:22:44;101794.97;;;10.68;100.00
20696;BME280;10507;52.754;13.040;2022-09-12T03:25:20;101756.94;;;10.60;100.00
20696;BME280;10507;52.754;13.040;2022-09-12T03:27:54;101744.50;;;10.60;100.00
20696;BME280;10507;52.754;13.040;2022-09-12T03:30:22;101723.25;;;10.56;100.00
20696;BME280;10507;52.754;13.040;2022-09-12T03:32:52;101717.09;;;10.54;100.00
20696;BME280;10507;52.754;13.040;2022-09-12T03:35:23;101714.53;;;10.51;100.00
20696;BME280;10507;52.754;13.040;2022-09-12T03:37:51;101794.97;;;10.68;100.00
20696;BME280;10507;52.754;13.040;2022-09-12T03:40:19;101853.44;;;10.77;100.00
20696;BME280;10507;52.754;13.040;2022-09-12T03:42:47;101889.84;;;10.81;100.00
20696;BME280;10507;52.754;13.040;2022-09-12T03:45:15;101897.06;;;10.78;100.00
20696;BME280;10507;52.754;13.040;2022-09-12T03:47:43;101912.22;;;10.77;100.00
20696;BME280;10507;52.754;13.040;2022-09-12T03:50:10;101911.41;;;10.74;100.00
20696;BME280;10507;52.754;13.040;2022-09-12T03:52:39;101929.22;;;10.75;100.00
20696;BME280;10507;52.754;13.040;2022-09-12T03:55:07;101931.09;;;10.71;100.00
20696;BME280;10507;52.754;13.040;2022-09-12T03:57:35;101915.19;;;10.67;100.00
20696;BME280;10507;52.754;13.040;2022-09-12T04:00:03;101915.34;;;10.62;100.00
20696;BME280;10507;52.754;13.040;2022-09-12T04:02:32;101913.63;;;10.59;100.00
20696;BME280;10507;52.754;13.040;2022-09-12T04:04:59;101916.34;;;10.58;100.00
20696;BME280;10507;52.754;13.040;2022-09-12T04:07:27;101920.00;;;10.55;100.00
20696;BME280;10507;52.754;13.040;2022-09-12T04:09:56;101900.72;;;10.46;100.00
20696;BME280;10507;52.754;13.040;2022-09-12T04:12:24;101866.28;;;10.36;100.00
20696;BME280;10507;52.754;13.040;2022-09-12T04:14:52;101839.81;;;10.27;100.00
20696;BME280;10507;52.754;13.040;2022-09-12T04:17:19;101823.16;;;10.19;100.00
20696;BME280;10507;52.754;13.040;2022-09-12T04:19:47;101804.59;;;10.14;100.00
20696;BME280;10507;52.754;13.040;2022-09-12T04:22:15;101780.81;;;10.07;100.00
20696;BME280;10507;52.754;13.040;2022-09-12T04:24:42;101764.94;;;10.02;100.00
20696;BME280;10507;52.754;13.040;2022-09-12T04:27:11;101743.69;;;9.99;100.00
20696;BME280;10507;52.754;13.040;2022-09-12T04:29:39;101731.31;;;9.96;100.00
20696;BME280;10507;52.754;13.040;2022-09-12T04:32:06;101706.50;;;9.93;100.00
20696;BME280;10507;52.754;13.040;2022-09-12T04:34:34;101695.94;;;9.90;100.00
20696;BME280;10507;52.754;13.040;2022-09-12T04:37:02;101688.81;;;9.90;100.00
20696;BME280;10507;52.754;13.040;2022-09-12T04:39:30;101685.31;;;9.88;100.00
20696;BME280;10507;52.754;13.040;2022-09-12T04:41:58;101700.22;;;9.95;100.00
20696;BME280;10507;52.754;13.040;2022-09-12T04:44:27;101712.53;;;9.99;100.00
20696;BME280;10507;52.754;13.040;2022-09-12T04:46:54;101708.13;;;9.98;100.00
20696;BME280;10507;52.754;13.040;2022-09-12T04:49:22;101690.47;;;9.94;100.00
20696;BME280;10507;52.754;13.040;2022-09-12T04:51:51;101658.63;;;9.88;100.00
20696;BME280;10507;52.754;13.040;2022-09-12T04:54:20;101665.63;;;9.92;100.00
20696;BME280;10507;52.754;13.040;2022-09-12T04:56:49;101669.13;;;9.94;100.00
20696;BME280;10507;52.754;13.040;2022-09-12T04:59:19;101677.09;;;9.96;100.00
20696;BME280;10507;52.754;13.040;2022-09-12T05:01:48;101682.31;;;9.99;100.00
20696;BME280;10507;52.754;13.040;2022-09-12T05:04:16;101679.63;;;10.01;100.00
20696;BME280;10507;52.754;13.040;2022-09-12T05:06:44;101648.66;;;9.95;100.00
20696;BME280;10507;52.754;13.040;2022-09-12T05:09:14;101652.16;;;9.97;100.00
20696;BME280;10507;52.754;13.040;2022-09-12T05:11:43;101695.44;;;10.07;100.00
20696;BME280;10507;52.754;13.040;2022-09-12T05:14:31;101697.06;;;10.11;100.00
20696;BME280;10507;52.754;13.040;2022-09-12T05:17:00;101705.00;;;10.14;100.00
20696;BME280;10507;52.754;13.040;2022-09-12T05:19:29;101710.13;;;10.20;100.00
20696;BME280;10507;52.754;13.040;2022-09-12T05:21:57;101725.94;;;10.26;100.00
20696;BME280;10507;52.754;13.040;2022-09-12T05:24:26;101721.41;;;10.31;100.00
20696;BME280;10507;52.754;13.040;2022-09-12T05:26:54;101745.84;;;10.46;100.00
20696;BME280;10507;52.754;13.040;2022-09-12T05:29:21;101720.78;;;10.50;100.00
20696;BME280;10507;52.754;13.040;2022-09-12T05:31:50;101715.16;;;10.59;100.00
20696;BME280;10507;52.754;13.040;2022-09-12T05:34:20;101688.44;;;10.59;100.00
20696;BME280;10507;52.754;13.040;2022-09-12T05:36:47;101688.13;;;10.68;100.00
20696;BME280;10507;52.754;13.040;2022-09-12T05:39:15;101666.56;;;10.74;100.00
20696;BME280;10507;52.754;13.040;2022-09-12T05:41:44;101685.50;;;10.93;100.00
20696;BME280;10507;52.754;13.040;2022-09-12T05:44:12;101661.97;;;11.03;100.00
20696;BME280;10507;52.754;13.040;2022-09-12T05:46:42;101630.47;;;11.13;100.00
20696;BME280;10507;52.754;13.040;2022-09-12T05:49:12;101627.16;;;11.30;100.00
20696;BME280;10507;52.754;13.040;2022-09-12T05:51:43;101620.50;;;11.41;100.00
20696;BME280;10507;52.754;13.040;2022-09-12T05:54:12;101667.53;;;11.94;100.00
20696;BME280;10507;52.754;13.040;2022-09-12T05:56:42;101687.13;;;13.03;100.00
20696;BME280;10507;52.754;13.040;2022-09-12T05:59:12;101595.56;;;14.07;100.00
20696;BME280;10507;52.754;13.040;2022-09-12T06:01:41;101463.50;;;14.85;100.00
20696;BME280;10507;52.754;13.040;2022-09-12T06:04:09;101453.41;;;15.84;100.00
20696;BME280;10507;52.754;13.040;2022-09-12T06:06:39;101320.28;;;16.45;99.73
20696;BME280;10507;52.754;13.040;2022-09-12T06:09:11;101136.34;;;16.69;94.23
20696;BME280;10507;52.754;13.040;2022-09-12T06:11:39;101073.69;;;16.78;91.51
20696;BME280;10507;52.754;13.040;2022-09-12T06:14:08;101149.50;;;17.52;89.50
20696;BME280;10507;52.754;13.040;2022-09-12T06:16:37;101137.59;;;17.67;88.46
20696;BME280;10507;52.754;13.040;2022-09-12T06:19:06;101150.47;;;18.13;86.43
20696;BME280;10507;52.754;13.040;2022-09-12T06:21:34;101046.09;;;18.23;85.28
20696;BME280;10507;52.754;13.040;2022-09-12T06:24:03;100992.75;;;18.14;85.17
20696;BME280;10507;52.754;13.040;2022-09-12T06:26:34;101001.66;;;18.27;84.92
20696;BME280;10507;52.754;13.040;2022-09-12T06:29:02;100979.06;;;18.40;85.12
20696;BME280;10507;52.754;13.040;2022-09-12T06:31:32;101051.84;;;18.89;84.16
20696;BME280;10507;52.754;13.040;2022-09-12T06:34:01;101062.31;;;19.05;83.63
20696;BME280;10507;52.754;13.040;2022-09-12T06:36:30;100898.06;;;18.72;83.35
20696;BME280;10507;52.754;13.040;2022-09-12T06:39:00;101095.06;;;19.25;83.55
20696;BME280;10507;52.754;13.040;2022-09-12T06:41:28;100892.34;;;18.99;82.56
20696;BME280;10507;52.754;13.040;2022-09-12T06:43:59;100937.31;;;19.11;83.04
20696;BME280;10507;52.754;13.040;2022-09-12T06:46:27;100990.47;;;19.46;82.35
20696;BME280;10507;52.754;13.040;2022-09-12T06:48:56;100914.91;;;19.21;82.46
20696;BME280;10507;52.754;13.040;2022-09-12T06:51:27;100875.72;;;19.47;81.08
20696;BME280;10507;52.754;13.040;2022-09-12T06:53:55;100890.94;;;19.60;81.08
20696;BME280;10507;52.754;13.040;2022-09-12T06:56:25;100783.41;;;19.39;81.51
20696;BME280;10507;52.754;13.040;2022-09-12T06:58:55;100904.56;;;19.37;82.89
20696;BME280;10507;52.754;13.040;2022-09-12T07:01:26;101044.16;;;20.28;82.02
20696;BME280;10507;52.754;13.040;2022-09-12T07:03:55;100795.94;;;20.24;79.32
20696;BME280;10507;52.754;13.040;2022-09-12T07:06:25;101011.22;;;20.96;78.65
20696;BME280;10507;52.754;13.040;2022-09-12T07:08:58;100933.06;;;20.90;78.95
20696;BME280;10507;52.754;13.040;2022-09-12T07:11:28;100873.19;;;20.91;78.55
20696;BME280;10507;52.754;13.040;2022-09-12T07:13:58;100826.19;;;20.91;79.16
20696;BME280;10507;52.754;13.040;2022-09-12T07:16:27;100733.31;;;20.77;77.87
20696;BME280;10507;52.754;13.040;2022-09-12T07:18:57;100739.06;;;20.84;78.58
20696;BME280;10507;52.754;13.040;2022-09-12T07:21:26;100683.84;;;20.45;79.82
20696;BME280;10507;52.754;13.040;2022-09-12T07:23:53;100763.78;;;20.81;78.81
20696;BME280;10507;52.754;13.040;2022-09-12T07:26:24;100757.06;;;20.85;79.82
20696;BME280;10507;52.754;13.040;2022-09-12T07:28:53;100670.91;;;20.68;79.39
20696;BME280;10507;52.754;13.040;2022-09-12T07:31:39;100696.34;;;20.76;79.97
20696;BME280;10507;52.754;13.040;2022-09-12T07:34:07;100603.72;;;20.21;80.86
20696;BME280;10507;52.754;13.040;2022-09-12T07:36:35;100587.28;;;20.03;81.37
20696;BME280;10507;52.754;13.040;2022-09-12T07:39:04;100598.50;;;19.48;83.47
20696;BME280;10507;52.754;13.040;2022-09-12T07:41:32;100735.22;;;19.75;85.12
20696;BME280;10507;52.754;13.040;2022-09-12T07:44:01;100854.31;;;20.19;85.15
20696;BME280;10507;52.754;13.040;2022-09-12T07:46:30;100814.50;;;20.50;83.96
20696;BME280;10507;52.754;13.040;2022-09-12T07:49:00;100661.41;;;19.62;84.71
20696;BME280;10507;52.754;13.040;2022-09-12T07:51:29;100688.56;;;19.50;85.37
20696;BME280;10507;52.754;13.040;2022-09-12T07:53:57;100680.13;;;19.44;85.41
20696;BME280;10507;52.754;13.040;2022-09-12T07:56:25;100651.63;;;18.98;86.90
20696;BME280;10507;52.754;13.040;2022-09-12T07:59:00;100802.25;;;19.62;86.80
20696;BME280;10507;52.754;13.040;2022-09-12T08:01:27;100749.56;;;19.87;85.62
20696;BME280;10507;52.754;13.040;2022-09-12T08:03:58;100729.59;;;19.67;86.64
20696;BME280;10507;52.754;13.040;2022-09-12T08:06:27;100808.44;;;20.06;86.01
20696;BME280;10507;52.754;13.040;2022-09-12T08:08:59;100746.16;;;20.25;84.50
20696;BME280;10507;52.754;13.040;2022-09-12T08:11:28;100668.31;;;19.97;84.35
20696;BME280;10507;52.754;13.040;2022-09-12T08:13:56;100705.22;;;19.98;85.68
20696;BME280;10507;52.754;13.040;2022-09-12T08:16:25;100647.53;;;19.76;85.41
20696;BME280;10507;52.754;13.040;2022-09-12T08:18:54;100679.50;;;19.61;86.93
20696;BME280;10507;52.754;13.040;2022-09-12T08:21:25;100744.91;;;19.57;88.14
20696;BME280;10507;52.754;13.040;2022-09-12T08:23:55;100786.50;;;19.67;88.52
20696;BME280;10507;52.754;13.040;2022-09-12T08:26:23;100679.19;;;19.55;87.35
20696;BME280;10507;52.754;13.040;2022-09-12T08:28:51;100722.34;;;19.46;88.30
20696;BME280;10507;52.754;13.040;2022-09-12T08:31:21;100632.94;;;19.16;87.51
20696;BME280;10507;52.754;13.040;2022-09-12T08:33:49;100700.09;;;19.22;89.28
20696;BME280;10507;52.754;13.040;2022-09-12T08:36:18;100734.63;;;19.29;89.15
20696;BME280;10507;52.754;13.040;2022-09-12T08:38:49;100706.25;;;18.92;90.35
20696;BME280;10507;52.754;13.040;2022-09-12T08:41:25;100647.06;;;18.77;89.19
20696;BME280;10507;52.754;13.040;2022-09-12T08:44:05;100577.00;;;18.31;89.01
20696;BME280;10507;52.754;13.040;2022-09-12T08:46:42;100652.63;;;18.53;89.38
20696;BME280;10507;52.754;13.040;2022-09-12T08:49:24;100669.94;;;18.62;89.57
20696;BME280;10507;52.754;13.040;2022-09-12T08:51:55;100637.06;;;18.78;88.03
20696;BME280;10507;52.754;13.040;2022-09-12T08:54:27;100600.22;;;18.65;87.51
20696;BME280;10507;52.754;13.040;2022-09-12T08:56:58;100694.91;;;18.65;90.31
20696;BME280;10507;52.754;13.040;2022-09-12T08:59:32;100703.31;;;18.72;90.25
20696;BME280;10507;52.754;13.040;2022-09-12T09:02:01;100689.44;;;18.77;89.46
20696;BME280;10507;52.754;13.040;2022-09-12T09:04:36;100557.31;;;18.61;86.62
20696;BME280;10507;52.754;13.040;2022-09-12T09:07:31;100625.47;;;18.87;86.71
20696;BME280;10507;52.754;13.040;2022-09-12T09:10:14;100641.06;;;19.16;86.70
20696;BME280;10507;52.754;13.040;2022-09-12T09:12:52;100620.31;;;19.05;86.98
20696;BME280;10507;52.754;13.040;2022-09-12T09:15:34;100560.50;;;19.29;84.13
20696;BME280;10507;52.754;13.040;2022-09-12T09:18:03;100380.06;;;19.08;80.37
20696;BME280;10507;52.754;13.040;2022-09-12T09:20:39;100411.41;;;19.11;81.41
20696;BME280;10507;52.754;13.040;2022-09-12T09:23:12;100538.16;;;19.37;83.26
20696;BME280;10507;52.754;13.040;2022-09-12T09:25:48;100405.91;;;19.32;80.47
20696;BME280;10507;52.754;13.040;2022-09-12T09:28:20;100404.50;;;19.47;79.77
20696;BME280;10507;52.754;13.040;2022-09-12T09:30:50;100422.44;;;19.39;80.21
20696;BME280;10507;52.754;13.040;2022-09-12T09:33:21;100556.06;;;19.68;82.37
20696;BME280;10507;52.754;13.040;2022-09-12T09:35:55;100436.88;;;19.59;81.11
20696;BME280;10507;52.754;13.040;2022-09-12T09:38:33;100449.34;;;19.71;80.68
20696;BME280;10507;52.754;13.040;2022-09-12T09:41:39;100287.50;;;19.34;79.28
20696;BME280;10507;52.754;13.040;2022-09-12T09:44:08;100387.50;;;19.26;81.33
20696;BME280;10507;52.754;13.040;2022-09-12T09:46:36;100502.59;;;19.61;82.70
20696;BME280;10507;52.754;13.040;2022-09-12T09:49:04;100474.97;;;19.67;81.93
20696;BME280;10507;52.754;13.040;2022-09-12T09:51:35;100371.31;;;19.65;80.37
20696;BME280;10507;52.754;13.040;2022-09-12T09:54:10;100298.88;;;19.28;80.34
20696;BME280;10507;52.754;13.040;2022-09-12T09:56:44;100425.75;;;19.62;81.25
20696;BME280;10507;52.754;13.040;2022-09-12T09:59:17;100378.44;;;19.56;81.12
20696;BME280;10507;52.754;13.040;2022-09-12T10:01:48;100282.34;;;19.50;79.35
20696;BME280;10507;52.754;13.040;2022-09-12T10:04:20;100334.81;;;19.49;80.44
20696;BME280;10507;52.754;13.040;2022-09-12T10:06:51;100437.22;;;19.94;81.17
20696;BME280;10507;52.754;13.040;2022-09-12T10:09:23;100368.78;;;19.83;80.52
20696;BME280;10507;52.754;13.040;2022-09-12T10:11:54;100320.88;;;19.73;79.35
20696;BME280;10507;52.754;13.040;2022-09-12T10:14:36;100396.88;;;19.91;80.77
20696;BME280;10507;52.754;13.040;2022-09-12T10:17:25;100274.97;;;19.72;78.83
20696;BME280;10507;52.754;13.040;2022-09-12T10:20:00;100315.28;;;19.75;79.70
20696;BME280;10507;52.754;13.040;2022-09-12T10:22:47;100354.94;;;19.76;80.80
20696;BME280;10507;52.754;13.040;2022-09-12T10:25:17;100302.19;;;19.51;81.13
20696;BME280;10507;52.754;13.040;2022-09-12T10:27:53;100387.84;;;19.62;82.46
20696;BME280;10507;52.754;13.040;2022-09-12T10:30:22;100357.63;;;19.57;82.41
20696;BME280;10507;52.754;13.040;2022-09-12T10:33:03;100379.56;;;19.63;81.99
20696;BME280;10507;52.754;13.040;2022-09-12T10:35:42;100414.13;;;19.90;81.58
20696;BME280;10507;52.754;13.040;2022-09-12T10:38:16;100423.50;;;20.25;80.42
20696;BME280;10507;52.754;13.040;2022-09-12T10:40:44;100306.53;;;20.20;78.99
20696;BME280;10507;52.754;13.040;2022-09-12T10:43:18;100216.44;;;20.26;76.61
20696;BME280;10507;52.754;13.040;2022-09-12T10:45:56;100244.78;;;20.42;77.10
20696;BME280;10507;52.754;13.040;2022-09-12T10:48:27;100101.38;;;20.11;75.46
20696;BME280;10507;52.754;13.040;2022-09-12T10:50:55;100099.47;;;19.76;76.46
20696;BME280;10507;52.754;13.040;2022-09-12T10:53:27;100247.06;;;20.09;78.19
20696;BME280;10507;52.754;13.040;2022-09-12T10:56:06;100259.75;;;20.18;77.83
20696;BME280;10507;52.754;13.040;2022-09-12T10:58:45;100204.44;;;20.01;77.60
20696;BME280;10507;52.754;13.040;2022-09-12T11:01:30;100163.66;;;20.03;77.34
20696;BME280;10507;52.754;13.040;2022-09-12T11:04:19;100119.69;;;19.62;77.72
20696;BME280;10507;52.754;13.040;2022-09-12T11:06:57;100250.56;;;19.91;79.19
20696;BME280;10507;52.754;13.040;2022-09-12T11:09:38;100274.41;;;20.25;78.25
20696;BME280;10507;52.754;13.040;2022-09-12T11:12:15;100080.59;;;20.11;75.59
20696;BME280;10507;52.754;13.040;2022-09-12T11:15:00;99965.84;;;19.75;74.32
20696;BME280;10507;52.754;13.040;2022-09-12T11:17:46;100033.06;;;19.89;74.90
20696;BME280;10507;52.754;13.040;2022-09-12T11:20:41;100067.00;;;19.93;75.64
20696;BME280;10507;52.754;13.040;2022-09-12T11:23:27;100115.53;;;19.77;77.00
20696;BME280;10507;52.754;13.040;2022-09-12T11:26:10;100180.81;;;19.93;77.86
20696;BME280;10507;52.754;13.040;2022-09-12T11:28:53;100155.66;;;20.01;77.49
20696;BME280;10507;52.754;13.040;2022-09-12T11:31:57;100165.06;;;20.07;77.28
20696;BME280;10507;52.754;13.040;2022-09-12T11:34:37;100052.44;;;19.94;75.97
20696;BME280;10507;52.754;13.040;2022-09-12T11:37:25;100149.75;;;20.33;76.18
20696;BME280;10507;52.754;13.040;2022-09-12T11:39:55;100072.06;;;20.24;75.78
20696;BME280;10507;52.754;13.040;2022-09-12T11:42:32;100141.81;;;20.50;75.84
20696;BME280;10507;52.754;13.040;2022-09-12T11:45:09;100034.03;;;20.52;74.38
20696;BME280;10507;52.754;13.040;2022-09-12T11:47:47;100005.59;;;20.56;73.21
20696;BME280;10507;52.754;13.040;2022-09-12T11:50:22;100061.44;;;20.85;73.50
20696;BME280;10507;52.754;13.040;2022-09-12T11:52:52;100042.84;;;20.90;73.49
20696;BME280;10507;52.754;13.040;2022-09-12T11:55:26;100068.66;;;20.94;73.39
20696;BME280;10507;52.754;13.040;2022-09-12T11:57:56;100096.56;;;21.04;74.04
20696;BME280;10507;52.754;13.040;2022-09-12T12:00:28;100057.97;;;20.92;73.78
20696;BME280;10507;52.754;13.040;2022-09-12T12:03:03;100027.19;;;20.84;73.91
20696;BME280;10507;52.754;13.040;2022-09-12T12:05:43;100060.09;;;21.07;74.57
20696;BME280;10507;52.754;13.040;2022-09-12T12:08:18;100052.09;;;21.05;73.94
20696;BME280;10507;52.754;13.040;2022-09-12T12:10:50;100055.50;;;21.07;74.41
20696;BME280;10507;52.754;13.040;2022-09-12T12:13:25;99985.59;;;21.01;73.09
20696;BME280;10507;52.754;13.040;2022-09-12T12:15:58;99935.16;;;20.90;72.60
20696;BME280;10507;52.754;13.040;2022-09-12T12:18:30;100008.31;;;21.00;73.38
20696;BME280;10507;52.754;13.040;2022-09-12T12:21:20;99947.91;;;20.98;72.62
20696;BME280;10507;52.754;13.040;2022-09-12T12:24:12;99959.50;;;21.08;72.09
20696;BME280;10507;52.754;13.040;2022-09-12T12:26:55;100066.16;;;21.27;73.40
20696;BME280;10507;52.754;13.040;2022-09-12T12:29:41;99951.88;;;21.12;72.18
20696;BME280;10507;52.754;13.040;2022-09-12T12:32:21;100010.81;;;20.93;73.49
20696;BME280;10507;52.754;13.040;2022-09-12T12:35:01;100001.06;;;21.09;72.71
20696;BME280;10507;52.754;13.040;2022-09-12T12:37:51;99986.41;;;21.28;71.96
20696;BME280;10507;52.754;13.040;2022-09-12T12:40:22;99995.34;;;21.46;70.83
20696;BME280;10507;52.754;13.040;2022-09-12T12:46:07;100003.03;;;21.59;71.05
20696;BME280;10507;52.754;13.040;2022-09-12T12:48:45;100015.47;;;21.62;71.01
20696;BME280;10507;52.754;13.040;2022-09-12T12:51:28;99947.16;;;21.56;69.94
20696;BME280;10507;52.754;13.040;2022-09-12T12:54:01;99900.63;;;21.51;70.27
20696;BME280;10507;52.754;13.040;2022-09-12T12:56:36;99917.97;;;21.50;69.72
20696;BME280;10507;52.754;13.040;2022-09-12T12:59:15;99930.44;;;21.35;70.54
20696;BME280;10507;52.754;13.040;2022-09-12T13:01:47;99950.06;;;21.55;70.57
20696;BME280;10507;52.754;13.040;2022-09-12T13:04:22;99985.88;;;21.50;71.31
20696;BME280;10507;52.754;13.040;2022-09-12T13:06:58;99969.19;;;21.45;72.41